CheckWX is a tool to help pilots better visualize weather data.  It is not intended as a substitute for an official pre-flight weather briefing.

00:42:03 UTC

VTBU TAF
U-Tapao International Airport
Rayong, Thailand
TAF VTBU 262300Z 2700/2724 17006KT 6000 FEW020CB TEMPO 2701/2705 VRB14KT 3000 TSRA FEW018CB SCT035 BKN100 BECMG 2705/2707 19010KT 8000

Mar-27@
00:00 UTC

Mar-27 @ 00:00 UTC

Mar-27@
05:00 UTC

Mar-27 @ 05:00 UTC

TAF VTBU 262300Z 2700/2724 17006KT 6000 FEW020CB
Wind
  • 170° at 6 KTS
Cloud Levels
  • Few at 2,000' AGL

Mar-27@
01:00 UTC

Mar-27 @ 01:00 UTC

Mar-27@
05:00 UTC

Mar-27 @ 05:00 UTC

TEMPO 2701/2705 VRB14KT 3000 TSRA FEW018CB SCT035 BKN100

Temporary

Temporary Changes expected for less than half the time period

Wind
  • Variable at 14 KTS
Conditions
Thunderstorm, Rain
Cloud Levels
  • Few at 1,800' AGL
  • Scattered at 3,500' AGL
  • Broken at 10,000' AGL

Mar-27@
05:00 UTC

Mar-27 @ 05:00 UTC

Mar-28@
00:00 UTC

Mar-28 @ 00:00 UTC

BECMG 2705/2707 19010KT 8000

Becoming

Becoming Conditions expected by Wed, Mar 27, 2019 @ 07:00 UTC

Wind
  • 190° at 10 KTS
Cloud Levels
  • Few at 2,000' AGL